sensor_id;sensor_type;location;lat;lon;timestamp;temperature;humidity
19880;DHT22;10102;50.828;4.416;2023-09-19T00:01:42;17.20;99.90
19880;DHT22;10102;50.828;4.416;2023-09-19T00:04:14;16.90;99.90
19880;DHT22;10102;50.828;4.416;2023-09-19T00:06:40;17.00;99.90
19880;DHT22;10102;50.828;4.416;2023-09-19T00:09:06;16.70;99.90
19880;DHT22;10102;50.828;4.416;2023-09-19T00:11:37;16.90;99.90
19880;DHT22;10102;50.828;4.416;2023-09-19T00:14:04;16.90;99.90
19880;DHT22;10102;50.828;4.416;2023-09-19T00:16:34;16.90;99.90
19880;DHT22;10102;50.828;4.416;2023-09-19T00:19:01;16.90;99.90
19880;DHT22;10102;50.828;4.416;2023-09-19T00:21:34;17.00;99.90
19880;DHT22;10102;50.828;4.416;2023-09-19T00:24:04;16.90;99.90
19880;DHT22;10102;50.828;4.416;2023-09-19T00:26:32;16.60;99.90
19880;DHT22;10102;50.828;4.416;2023-09-19T00:28:57;16.70;99.90
19880;DHT22;10102;50.828;4.416;2023-09-19T00:33:51;16.70;99.90
19880;DHT22;10102;50.828;4.416;2023-09-19T00:36:18;16.80;99.90
19880;DHT22;10102;50.828;4.416;2023-09-19T00:38:44;16.60;99.90
19880;DHT22;10102;50.828;4.416;2023-09-19T00:41:11;16.80;99.90
19880;DHT22;10102;50.828;4.416;2023-09-19T00:43:38;16.70;99.90
19880;DHT22;10102;50.828;4.416;2023-09-19T00:46:06;16.70;99.90
19880;DHT22;10102;50.828;4.416;2023-09-19T00:48:38;16.90;99.90
19880;DHT22;10102;50.828;4.416;2023-09-19T00:51:05;16.70;99.90
19880;DHT22;10102;50.828;4.416;2023-09-19T00:53:32;16.90;99.90
19880;DHT22;10102;50.828;4.416;2023-09-19T00:55:59;16.90;99.90
19880;DHT22;10102;50.828;4.416;2023-09-19T00:58:25;17.20;99.90
19880;DHT22;10102;50.828;4.416;2023-09-19T01:00:51;16.80;99.90
19880;DHT22;10102;50.828;4.416;2023-09-19T01:03:19;16.70;99.90
19880;DHT22;10102;50.828;4.416;2023-09-19T01:05:45;16.80;99.90
19880;DHT22;10102;50.828;4.416;2023-09-19T01:08:10;16.70;99.90
19880;DHT22;10102;50.828;4.416;2023-09-19T01:10:46;16.80;99.90
19880;DHT22;10102;50.828;4.416;2023-09-19T01:16:36;16.60;99.90
19880;DHT22;10102;50.828;4.416;2023-09-19T01:20:01;16.70;99.90
19880;DHT22;10102;50.828;4.416;2023-09-19T01:28:18;16.60;99.90
19880;DHT22;10102;50.828;4.416;2023-09-19T01:30:47;16.60;99.90
19880;DHT22;10102;50.828;4.416;2023-09-19T01:33:16;17.00;99.90
19880;DHT22;10102;50.828;4.416;2023-09-19T01:35:42;16.60;99.90
19880;DHT22;10102;50.828;4.416;2023-09-19T01:38:08;16.90;99.90
19880;DHT22;10102;50.828;4.416;2023-09-19T01:40:41;16.60;99.90
19880;DHT22;10102;50.828;4.416;2023-09-19T01:51:22;16.50;99.90
19880;DHT22;10102;50.828;4.416;2023-09-19T01:54:03;16.50;99.90
19880;DHT22;10102;50.828;4.416;2023-09-19T01:57:16;16.40;99.90
19880;DHT22;10102;50.828;4.416;2023-09-19T01:59:52;16.40;99.90
19880;DHT22;10102;50.828;4.416;2023-09-19T02:02:21;16.80;99.90
19880;DHT22;10102;50.828;4.416;2023-09-19T02:04:49;16.50;99.90
19880;DHT22;10102;50.828;4.416;2023-09-19T02:07:16;16.30;99.90
19880;DHT22;10102;50.828;4.416;2023-09-19T02:12:11;16.40;99.90
19880;DHT22;10102;50.828;4.416;2023-09-19T02:14:37;16.20;99.90
19880;DHT22;10102;50.828;4.416;2023-09-19T02:17:03;16.20;99.90
19880;DHT22;10102;50.828;4.416;2023-09-19T02:19:33;16.40;99.90
19880;DHT22;10102;50.828;4.416;2023-09-19T02:22:00;16.40;99.90
19880;DHT22;10102;50.828;4.416;2023-09-19T02:24:29;16.40;99.90
19880;DHT22;10102;50.828;4.416;2023-09-19T02:26:54;16.50;99.90
19880;DHT22;10102;50.828;4.416;2023-09-19T02:29:21;16.50;99.90
19880;DHT22;10102;50.828;4.416;2023-09-19T02:31:48;16.20;99.90
19880;DHT22;10102;50.828;4.416;2023-09-19T02:34:13;16.50;99.90
19880;DHT22;10102;50.828;4.416;2023-09-19T02:36:42;16.50;99.90
19880;DHT22;10102;50.828;4.416;2023-09-19T02:39:10;16.40;99.90
19880;DHT22;10102;50.828;4.416;2023-09-19T02:41:36;16.50;99.90
19880;DHT22;10102;50.828;4.416;2023-09-19T02:44:02;16.40;99.90
19880;DHT22;10102;50.828;4.416;2023-09-19T02:46:28;16.40;99.90
19880;DHT22;10102;50.828;4.416;2023-09-19T02:48:54;16.80;99.90
19880;DHT22;10102;50.828;4.416;2023-09-19T02:51:20;16.80;99.90
19880;DHT22;10102;50.828;4.416;2023-09-19T02:53:46;16.50;99.90
19880;DHT22;10102;50.828;4.416;2023-09-19T02:56:13;16.40;99.90
19880;DHT22;10102;50.828;4.416;2023-09-19T02:58:40;16.40;99.90
19880;DHT22;10102;50.828;4.416;2023-09-19T03:01:10;16.50;99.90
19880;DHT22;10102;50.828;4.416;2023-09-19T03:03:39;16.40;99.90
19880;DHT22;10102;50.828;4.416;2023-09-19T03:06:08;16.50;99.90
19880;DHT22;10102;50.828;4.416;2023-09-19T03:08:35;16.40;99.90
19880;DHT22;10102;50.828;4.416;2023-09-19T03:11:05;16.50;99.90
19880;DHT22;10102;50.828;4.416;2023-09-19T03:13:37;16.60;99.90
19880;DHT22;10102;50.828;4.416;2023-09-19T03:16:06;16.50;99.90
19880;DHT22;10102;50.828;4.416;2023-09-19T03:18:34;16.70;99.90
19880;DHT22;10102;50.828;4.416;2023-09-19T03:21:00;16.40;99.90
19880;DHT22;10102;50.828;4.416;2023-09-19T03:23:26;16.40;99.90
19880;DHT22;10102;50.828;4.416;2023-09-19T03:25:53;16.40;99.90
19880;DHT22;10102;50.828;4.416;2023-09-19T03:28:19;16.40;99.90
19880;DHT22;10102;50.828;4.416;2023-09-19T03:30:46;16.40;99.90
19880;DHT22;10102;50.828;4.416;2023-09-19T03:33:12;16.40;99.90
19880;DHT22;10102;50.828;4.416;2023-09-19T03:35:39;16.40;99.90
19880;DHT22;10102;50.828;4.416;2023-09-19T03:38:05;16.50;99.90
19880;DHT22;10102;50.828;4.416;2023-09-19T03:40:31;16.40;99.90
19880;DHT22;10102;50.828;4.416;2023-09-19T03:43:00;16.40;99.90
19880;DHT22;10102;50.828;4.416;2023-09-19T03:45:27;16.30;99.90
19880;DHT22;10102;50.828;4.416;2023-09-19T03:47:53;16.20;99.90
19880;DHT22;10102;50.828;4.416;2023-09-19T03:50:19;16.10;99.90
19880;DHT22;10102;50.828;4.416;2023-09-19T03:52:45;16.10;99.90
19880;DHT22;10102;50.828;4.416;2023-09-19T03:55:11;16.40;99.90
19880;DHT22;10102;50.828;4.416;2023-09-19T03:57:37;15.70;99.90
19880;DHT22;10102;50.828;4.416;2023-09-19T04:00:04;15.70;99.90
19880;DHT22;10102;50.828;4.416;2023-09-19T04:02:38;15.80;99.90
19880;DHT22;10102;50.828;4.416;2023-09-19T04:05:04;15.90;99.90
19880;DHT22;10102;50.828;4.416;2023-09-19T04:07:29;15.90;99.90
19880;DHT22;10102;50.828;4.416;2023-09-19T04:09:55;15.90;99.90
19880;DHT22;10102;50.828;4.416;2023-09-19T04:12:21;15.80;99.90
19880;DHT22;10102;50.828;4.416;2023-09-19T04:14:48;15.90;99.90
19880;DHT22;10102;50.828;4.416;2023-09-19T04:17:14;15.80;99.90
19880;DHT22;10102;50.828;4.416;2023-09-19T04:19:40;16.30;99.90
19880;DHT22;10102;50.828;4.416;2023-09-19T04:22:07;15.90;99.90
19880;DHT22;10102;50.828;4.416;2023-09-19T04:24:32;16.20;99.90
19880;DHT22;10102;50.828;4.416;2023-09-19T04:26:59;15.80;99.90
19880;DHT22;10102;50.828;4.416;2023-09-19T04:29:25;15.60;99.90
19880;DHT22;10102;50.828;4.416;2023-09-19T04:31:55;15.60;99.90
19880;DHT22;10102;50.828;4.416;2023-09-19T04:34:23;15.80;99.90
19880;DHT22;10102;50.828;4.416;2023-09-19T04:36:52;15.70;99.90
19880;DHT22;10102;50.828;4.416;2023-09-19T04:39:18;15.70;99.90
19880;DHT22;10102;50.828;4.416;2023-09-19T04:41:44;15.60;99.90
19880;DHT22;10102;50.828;4.416;2023-09-19T04:44:11;15.60;99.90
19880;DHT22;10102;50.828;4.416;2023-09-19T04:46:40;15.60;99.90
19880;DHT22;10102;50.828;4.416;2023-09-19T04:49:07;15.70;99.90
19880;DHT22;10102;50.828;4.416;2023-09-19T04:51:38;15.70;99.90
19880;DHT22;10102;50.828;4.416;2023-09-19T04:54:05;15.70;99.90
19880;DHT22;10102;50.828;4.416;2023-09-19T04:56:32;15.70;99.90
19880;DHT22;10102;50.828;4.416;2023-09-19T04:59:01;15.70;99.90
19880;DHT22;10102;50.828;4.416;2023-09-19T05:01:26;15.60;99.90
19880;DHT22;10102;50.828;4.416;2023-09-19T05:03:52;15.70;99.90
19880;DHT22;10102;50.828;4.416;2023-09-19T05:06:21;15.70;99.90
19880;DHT22;10102;50.828;4.416;2023-09-19T05:08:50;15.60;99.90
19880;DHT22;10102;50.828;4.416;2023-09-19T05:11:18;15.50;99.90
19880;DHT22;10102;50.828;4.416;2023-09-19T05:13:44;15.40;99.90
19880;DHT22;10102;50.828;4.416;2023-09-19T05:16:11;15.70;99.90
19880;DHT22;10102;50.828;4.416;2023-09-19T05:18:37;15.50;99.90
19880;DHT22;10102;50.828;4.416;2023-09-19T05:21:03;15.40;99.90
19880;DHT22;10102;50.828;4.416;2023-09-19T05:23:29;15.50;99.90
19880;DHT22;10102;50.828;4.416;2023-09-19T05:25:55;15.50;99.90
19880;DHT22;10102;50.828;4.416;2023-09-19T05:28:23;15.50;99.90
19880;DHT22;10102;50.828;4.416;2023-09-19T05:30:49;15.40;99.90
19880;DHT22;10102;50.828;4.416;2023-09-19T05:33:15;15.40;99.90
19880;DHT22;10102;50.828;4.416;2023-09-19T05:35:44;15.40;99.90
19880;DHT22;10102;50.828;4.416;2023-09-19T05:38:11;15.50;99.90
19880;DHT22;10102;50.828;4.416;2023-09-19T05:40:39;15.90;99.90
19880;DHT22;10102;50.828;4.416;2023-09-19T05:43:09;15.60;99.90
19880;DHT22;10102;50.828;4.416;2023-09-19T05:45:35;15.70;99.90
19880;DHT22;10102;50.828;4.416;2023-09-19T05:48:14;15.80;99.90
19880;DHT22;10102;50.828;4.416;2023-09-19T05:50:42;15.80;99.90
19880;DHT22;10102;50.828;4.416;2023-09-19T05:55:37;15.80;99.90
19880;DHT22;10102;50.828;4.416;2023-09-19T05:58:03;15.80;99.90
19880;DHT22;10102;50.828;4.416;2023-09-19T06:00:29;15.90;99.90
19880;DHT22;10102;50.828;4.416;2023-09-19T06:02:58;15.70;99.90
19880;DHT22;10102;50.828;4.416;2023-09-19T06:05:25;15.70;99.90
19880;DHT22;10102;50.828;4.416;2023-09-19T06:07:57;15.70;99.90
19880;DHT22;10102;50.828;4.416;2023-09-19T06:10:27;15.80;99.90
19880;DHT22;10102;50.828;4.416;2023-09-19T06:12:54;15.60;99.90
19880;DHT22;10102;50.828;4.416;2023-09-19T06:15:21;15.70;99.90
19880;DHT22;10102;50.828;4.416;2023-09-19T06:17:59;15.70;99.90
19880;DHT22;10102;50.828;4.416;2023-09-19T06:20:26;15.80;99.90
19880;DHT22;10102;50.828;4.416;2023-09-19T06:22:53;15.90;99.90
19880;DHT22;10102;50.828;4.416;2023-09-19T06:25:20;15.80;99.90
19880;DHT22;10102;50.828;4.416;2023-09-19T06:27:46;16.00;99.90
19880;DHT22;10102;50.828;4.416;2023-09-19T06:30:12;16.20;99.90
19880;DHT22;10102;50.828;4.416;2023-09-19T06:32:40;15.90;99.90
19880;DHT22;10102;50.828;4.416;2023-09-19T06:35:06;15.90;99.90
19880;DHT22;10102;50.828;4.416;2023-09-19T06:37:37;16.00;99.90
19880;DHT22;10102;50.828;4.416;2023-09-19T06:40:10;15.90;99.90
19880;DHT22;10102;50.828;4.416;2023-09-19T06:42:52;16.20;99.90
19880;DHT22;10102;50.828;4.416;2023-09-19T06:45:18;16.00;99.90
19880;DHT22;10102;50.828;4.416;2023-09-19T06:47:48;16.10;99.90
19880;DHT22;10102;50.828;4.416;2023-09-19T06:50:21;16.20;99.90
19880;DHT22;10102;50.828;4.416;2023-09-19T06:52:52;16.10;99.90
19880;DHT22;10102;50.828;4.416;2023-09-19T06:55:21;16.30;99.90
19880;DHT22;10102;50.828;4.416;2023-09-19T06:57:49;16.30;99.90
19880;DHT22;10102;50.828;4.416;2023-09-19T07:00:15;16.30;99.90
19880;DHT22;10102;50.828;4.416;2023-09-19T07:02:42;16.00;99.90
19880;DHT22;10102;50.828;4.416;2023-09-19T07:05:08;16.20;99.90
19880;DHT22;10102;50.828;4.416;2023-09-19T07:07:34;16.20;99.90
19880;DHT22;10102;50.828;4.416;2023-09-19T07:10:04;16.20;99.90
19880;DHT22;10102;50.828;4.416;2023-09-19T07:12:37;16.60;99.90
19880;DHT22;10102;50.828;4.416;2023-09-19T07:15:03;16.20;99.90
19880;DHT22;10102;50.828;4.416;2023-09-19T07:17:31;16.30;99.90
19880;DHT22;10102;50.828;4.416;2023-09-19T07:19:58;16.40;99.90
19880;DHT22;10102;50.828;4.416;2023-09-19T07:22:29;16.50;99.90
19880;DHT22;10102;50.828;4.416;2023-09-19T07:24:56;16.40;99.90
19880;DHT22;10102;50.828;4.416;2023-09-19T07:27:22;16.40;99.90
19880;DHT22;10102;50.828;4.416;2023-09-19T07:29:49;16.50;99.90
19880;DHT22;10102;50.828;4.416;2023-09-19T07:35:36;16.60;99.90
19880;DHT22;10102;50.828;4.416;2023-09-19T07:38:05;16.50;99.90
19880;DHT22;10102;50.828;4.416;2023-09-19T07:40:31;16.60;99.90
19880;DHT22;10102;50.828;4.416;2023-09-19T07:42:57;16.80;99.90
19880;DHT22;10102;50.828;4.416;2023-09-19T07:45:28;16.70;99.90
19880;DHT22;10102;50.828;4.416;2023-09-19T07:47:55;16.80;99.90
19880;DHT22;10102;50.828;4.416;2023-09-19T07:50:22;17.00;99.90
19880;DHT22;10102;50.828;4.416;2023-09-19T07:52:48;17.00;99.90
19880;DHT22;10102;50.828;4.416;2023-09-19T07:55:16;16.90;99.90
19880;DHT22;10102;50.828;4.416;2023-09-19T07:57:45;16.90;99.90
19880;DHT22;10102;50.828;4.416;2023-09-19T08:00:13;17.10;99.90
19880;DHT22;10102;50.828;4.416;2023-09-19T08:02:40;16.90;99.90
19880;DHT22;10102;50.828;4.416;2023-09-19T08:05:08;17.10;99.90
19880;DHT22;10102;50.828;4.416;2023-09-19T08:07:39;17.10;99.90
19880;DHT22;10102;50.828;4.416;2023-09-19T08:10:06;17.20;99.90
19880;DHT22;10102;50.828;4.416;2023-09-19T08:12:43;17.30;99.90
19880;DHT22;10102;50.828;4.416;2023-09-19T08:15:21;17.10;99.90
19880;DHT22;10102;50.828;4.416;2023-09-19T08:17:47;17.40;99.90
19880;DHT22;10102;50.828;4.416;2023-09-19T08:20:14;17.60;99.90
19880;DHT22;10102;50.828;4.416;2023-09-19T08:22:47;17.40;99.90
19880;DHT22;10102;50.828;4.416;2023-09-19T08:25:17;17.40;99.90
19880;DHT22;10102;50.828;4.416;2023-09-19T08:27:44;17.50;99.90
19880;DHT22;10102;50.828;4.416;2023-09-19T08:30:21;17.50;99.90
19880;DHT22;10102;50.828;4.416;2023-09-19T08:32:50;17.50;99.90
19880;DHT22;10102;50.828;4.416;2023-09-19T08:35:16;17.60;99.90
19880;DHT22;10102;50.828;4.416;2023-09-19T08:37:42;17.80;99.90
19880;DHT22;10102;50.828;4.416;2023-09-19T08:40:10;17.80;99.90
19880;DHT22;10102;50.828;4.416;2023-09-19T08:42:52;17.70;99.90
19880;DHT22;10102;50.828;4.416;2023-09-19T08:45:20;18.00;99.90
19880;DHT22;10102;50.828;4.416;2023-09-19T08:50:27;17.90;99.90
19880;DHT22;10102;50.828;4.416;2023-09-19T08:53:00;18.00;99.90
19880;DHT22;10102;50.828;4.416;2023-09-19T08:55:29;18.40;99.90
19880;DHT22;10102;50.828;4.416;2023-09-19T08:58:03;18.50;99.90
19880;DHT22;10102;50.828;4.416;2023-09-19T09:00:32;18.50;99.90
19880;DHT22;10102;50.828;4.416;2023-09-19T09:03:01;18.60;99.90
19880;DHT22;10102;50.828;4.416;2023-09-19T09:05:28;18.70;99.90
19880;DHT22;10102;50.828;4.416;2023-09-19T09:07:55;18.90;99.90
19880;DHT22;10102;50.828;4.416;2023-09-19T09:10:23;19.00;99.90
19880;DHT22;10102;50.828;4.416;2023-09-19T09:12:52;19.20;99.90
19880;DHT22;10102;50.828;4.416;2023-09-19T09:15:22;19.20;99.90
19880;DHT22;10102;50.828;4.416;2023-09-19T09:17:52;19.70;99.90
19880;DHT22;10102;50.828;4.416;2023-09-19T09:20:21;19.80;99.90
19880;DHT22;10102;50.828;4.416;2023-09-19T09:22:57;20.00;99.90
19880;DHT22;10102;50.828;4.416;2023-09-19T09:25:52;19.50;99.90
19880;DHT22;10102;50.828;4.416;2023-09-19T09:28:26;19.50;99.90
19880;DHT22;10102;50.828;4.416;2023-09-19T09:30:54;19.80;99.90
19880;DHT22;10102;50.828;4.416;2023-09-19T09:33:20;20.00;99.90
19880;DHT22;10102;50.828;4.416;2023-09-19T09:38:22;20.00;99.90
19880;DHT22;10102;50.828;4.416;2023-09-19T09:40:54;20.00;99.90
19880;DHT22;10102;50.828;4.416;2023-09-19T09:43:37;20.20;99.90
19880;DHT22;10102;50.828;4.416;2023-09-19T09:46:30;20.40;99.90
19880;DHT22;10102;50.828;4.416;2023-09-19T09:49:23;20.50;99.90
19880;DHT22;10102;50.828;4.416;2023-09-19T09:52:06;20.50;99.90
19880;DHT22;10102;50.828;4.416;2023-09-19T09:55:04;20.50;99.90
19880;DHT22;10102;50.828;4.416;2023-09-19T09:57:34;20.60;99.90
19880;DHT22;10102;50.828;4.416;2023-09-19T10:00:01;20.50;99.90
19880;DHT22;10102;50.828;4.416;2023-09-19T10:02:39;20.40;99.90
19880;DHT22;10102;50.828;4.416;2023-09-19T10:05:17;20.10;99.90
19880;DHT22;10102;50.828;4.416;2023-09-19T10:07:46;20.20;99.90
19880;DHT22;10102;50.828;4.416;2023-09-19T10:10:36;20.20;99.90
19880;DHT22;10102;50.828;4.416;2023-09-19T10:13:14;20.40;99.90
19880;DHT22;10102;50.828;4.416;2023-09-19T10:15:51;20.60;99.90
19880;DHT22;10102;50.828;4.416;2023-09-19T10:18:24;20.60;99.90
19880;DHT22;10102;50.828;4.416;2023-09-19T10:20:50;20.90;99.90
19880;DHT22;10102;50.828;4.416;2023-09-19T10:23:20;21.10;99.90
19880;DHT22;10102;50.828;4.416;2023-09-19T10:25:52;21.20;99.90
19880;DHT22;10102;50.828;4.416;2023-09-19T10:28:19;21.20;99.90
19880;DHT22;10102;50.828;4.416;2023-09-19T10:30:50;21.40;99.90
19880;DHT22;10102;50.828;4.416;2023-09-19T10:33:19;21.30;99.90
19880;DHT22;10102;50.828;4.416;2023-09-19T10:35:48;21.70;99.90
19880;DHT22;10102;50.828;4.416;2023-09-19T10:38:18;22.00;99.90
19880;DHT22;10102;50.828;4.416;2023-09-19T10:40:52;22.70;99.90
19880;DHT22;10102;50.828;4.416;2023-09-19T10:43:23;23.20;99.90
19880;DHT22;10102;50.828;4.416;2023-09-19T10:45:51;23.90;99.90
19880;DHT22;10102;50.828;4.416;2023-09-19T10:48:19;23.80;99.90
19880;DHT22;10102;50.828;4.416;2023-09-19T10:53:53;25.40;99.90
19880;DHT22;10102;50.828;4.416;2023-09-19T10:56:30;25.40;99.90
19880;DHT22;10102;50.828;4.416;2023-09-19T10:59:07;26.40;99.90
19880;DHT22;10102;50.828;4.416;2023-09-19T11:07:07;28.50;99.90
19880;DHT22;10102;50.828;4.416;2023-09-19T11:09:51;27.70;99.90
19880;DHT22;10102;50.828;4.416;2023-09-19T11:14:58;28.00;99.90
19880;DHT22;10102;50.828;4.416;2023-09-19T11:30:40;30.30;99.90
19880;DHT22;10102;50.828;4.416;2023-09-19T11:36:01;29.90;99.90
19880;DHT22;10102;50.828;4.416;2023-09-19T11:46:13;27.40;99.90
19880;DHT22;10102;50.828;4.416;2023-09-19T11:48:43;27.00;99.90
19880;DHT22;10102;50.828;4.416;2023-09-19T11:51:14;26.70;99.90
19880;DHT22;10102;50.828;4.416;2023-09-19T11:53:58;26.80;99.90
19880;DHT22;10102;50.828;4.416;2023-09-19T11:56:27;25.90;99.90
19880;DHT22;10102;50.828;4.416;2023-09-19T11:58:56;25.80;99.90
19880;DHT22;10102;50.828;4.416;2023-09-19T12:01:33;25.30;99.90
19880;DHT22;10102;50.828;4.416;2023-09-19T12:04:01;24.10;99.90
19880;DHT22;10102;50.828;4.416;2023-09-19T12:06:30;23.60;99.90
19880;DHT22;10102;50.828;4.416;2023-09-19T12:08:58;24.10;99.90
19880;DHT22;10102;50.828;4.416;2023-09-19T12:11:31;23.90;99.90
19880;DHT22;10102;50.828;4.416;2023-09-19T12:14:01;23.70;99.90
19880;DHT22;10102;50.828;4.416;2023-09-19T12:16:28;23.30;99.90
19880;DHT22;10102;50.828;4.416;2023-09-19T12:19:20;22.80;99.90
19880;DHT22;10102;50.828;4.416;2023-09-19T12:21:58;22.70;99.90
19880;DHT22;10102;50.828;4.416;2023-09-19T12:24:27;22.40;99.90
19880;DHT22;10102;50.828;4.416;2023-09-19T12:27:00;22.50;99.90
19880;DHT22;10102;50.828;4.416;2023-09-19T12:29:27;22.10;99.90
19880;DHT22;10102;50.828;4.416;2023-09-19T12:31:57;22.80;99.90
19880;DHT22;10102;50.828;4.416;2023-09-19T12:34:25;23.40;99.90
19880;DHT22;10102;50.828;4.416;2023-09-19T12:39:40;23.70;99.90
19880;DHT22;10102;50.828;4.416;2023-09-19T12:42:10;23.50;99.90
19880;DHT22;10102;50.828;4.416;2023-09-19T12:44:37;23.80;99.90
19880;DHT22;10102;50.828;4.416;2023-09-19T12:47:11;23.70;99.90
19880;DHT22;10102;50.828;4.416;2023-09-19T12:50:13;23.60;99.90
19880;DHT22;10102;50.828;4.416;2023-09-19T12:52:47;23.10;99.90
19880;DHT22;10102;50.828;4.416;2023-09-19T12:58:12;24.10;99.90
19880;DHT22;10102;50.828;4.416;2023-09-19T13:00:43;24.10;99.90
19880;DHT22;10102;50.828;4.416;2023-09-19T13:03:39;23.80;99.90
19880;DHT22;10102;50.828;4.416;2023-09-19T13:06:06;23.40;99.90
19880;DHT22;10102;50.828;4.416;2023-09-19T13:08:38;23.00;99.90
19880;DHT22;10102;50.828;4.416;2023-09-19T13:13:43;22.80;99.90
19880;DHT22;10102;50.828;4.416;2023-09-19T13:16:11;22.60;99.90
19880;DHT22;10102;50.828;4.416;2023-09-19T13:19:06;22.70;99.90
19880;DHT22;10102;50.828;4.416;2023-09-19T13:21:33;22.70;99.90
19880;DHT22;10102;50.828;4.416;2023-09-19T13:24:23;22.70;99.90
19880;DHT22;10102;50.828;4.416;2023-09-19T13:26:51;22.50;99.90
19880;DHT22;10102;50.828;4.416;2023-09-19T13:29:17;22.60;99.90
19880;DHT22;10102;50.828;4.416;2023-09-19T13:31:51;22.70;99.90
19880;DHT22;10102;50.828;4.416;2023-09-19T13:34:20;22.60;99.90
19880;DHT22;10102;50.828;4.416;2023-09-19T13:36:47;22.50;99.90
19880;DHT22;10102;50.828;4.416;2023-09-19T13:39:18;22.40;99.90
19880;DHT22;10102;50.828;4.416;2023-09-19T13:41:45;22.50;99.90
19880;DHT22;10102;50.828;4.416;2023-09-19T13:44:12;22.40;99.90
19880;DHT22;10102;50.828;4.416;2023-09-19T13:46:38;22.30;99.90
19880;DHT22;10102;50.828;4.416;2023-09-19T13:49:04;22.50;99.90
19880;DHT22;10102;50.828;4.416;2023-09-19T13:51:33;22.70;99.90
19880;DHT22;10102;50.828;4.416;2023-09-19T13:53:59;22.70;99.90
19880;DHT22;10102;50.828;4.416;2023-09-19T13:56:27;22.60;99.90
19880;DHT22;10102;50.828;4.416;2023-09-19T13:58:54;22.30;99.90
19880;DHT22;10102;50.828;4.416;2023-09-19T14:01:20;22.00;99.90
19880;DHT22;10102;50.828;4.416;2023-09-19T14:03:46;22.00;99.90
19880;DHT22;10102;50.828;4.416;2023-09-19T14:06:14;21.60;99.90
19880;DHT22;10102;50.828;4.416;2023-09-19T14:08:40;21.70;99.90
19880;DHT22;10102;50.828;4.416;2023-09-19T14:11:09;21.40;99.90
19880;DHT22;10102;50.828;4.416;2023-09-19T14:13:35;21.40;99.90
19880;DHT22;10102;50.828;4.416;2023-09-19T14:16:04;21.50;99.90
19880;DHT22;10102;50.828;4.416;2023-09-19T14:18:31;21.80;99.90
19880;DHT22;10102;50.828;4.416;2023-09-19T14:20:57;21.90;99.90
19880;DHT22;10102;50.828;4.416;2023-09-19T14:23:24;22.10;99.90
19880;DHT22;10102;50.828;4.416;2023-09-19T14:25:51;22.30;99.90
19880;DHT22;10102;50.828;4.416;2023-09-19T14:28:19;22.80;99.90
19880;DHT22;10102;50.828;4.416;2023-09-19T14:30:45;22.80;99.90
19880;DHT22;10102;50.828;4.416;2023-09-19T14:33:11;22.70;99.90
19880;DHT22;10102;50.828;4.416;2023-09-19T14:35:38;22.70;99.90
19880;DHT22;10102;50.828;4.416;2023-09-19T14:38:04;22.50;99.90
19880;DHT22;10102;50.828;4.416;2023-09-19T14:40:30;22.60;99.90
19880;DHT22;10102;50.828;4.416;2023-09-19T14:42:56;22.70;99.90
19880;DHT22;10102;50.828;4.416;2023-09-19T14:45:22;22.60;99.90
19880;DHT22;10102;50.828;4.416;2023-09-19T14:47:50;22.60;99.90
19880;DHT22;10102;50.828;4.416;2023-09-19T14:50:18;22.70;99.90
19880;DHT22;10102;50.828;4.416;2023-09-19T14:52:44;22.60;99.90
19880;DHT22;10102;50.828;4.416;2023-09-19T14:55:09;22.80;99.90
19880;DHT22;10102;50.828;4.416;2023-09-19T14:57:40;22.90;99.90
19880;DHT22;10102;50.828;4.416;2023-09-19T15:00:06;22.90;99.90
19880;DHT22;10102;50.828;4.416;2023-09-19T15:02:38;22.90;99.90
19880;DHT22;10102;50.828;4.416;2023-09-19T15:05:06;22.80;99.90
19880;DHT22;10102;50.828;4.416;2023-09-19T15:07:35;22.70;99.90
19880;DHT22;10102;50.828;4.416;2023-09-19T15:10:03;22.80;99.90
19880;DHT22;10102;50.828;4.416;2023-09-19T15:12:29;22.10;99.90
19880;DHT22;10102;50.828;4.416;2023-09-19T15:14:54;22.10;99.90
19880;DHT22;10102;50.828;4.416;2023-09-19T15:17:20;21.90;99.90
19880;DHT22;10102;50.828;4.416;2023-09-19T15:19:46;21.80;99.90
19880;DHT22;10102;50.828;4.416;2023-09-19T15:22:12;21.30;99.90
19880;DHT22;10102;50.828;4.416;2023-09-19T15:24:38;21.50;99.90
19880;DHT22;10102;50.828;4.416;2023-09-19T15:27:04;21.40;99.90
19880;DHT22;10102;50.828;4.416;2023-09-19T15:29:30;21.30;99.90
19880;DHT22;10102;50.828;4.416;2023-09-19T15:31:56;21.30;99.90
19880;DHT22;10102;50.828;4.416;2023-09-19T15:34:28;21.10;99.90
19880;DHT22;10102;50.828;4.416;2023-09-19T15:36:54;21.20;99.90
19880;DHT22;10102;50.828;4.416;2023-09-19T15:39:20;20.80;99.90
19880;DHT22;10102;50.828;4.416;2023-09-19T15:41:48;20.80;99.90
19880;DHT22;10102;50.828;4.416;2023-09-19T15:44:18;20.60;99.90
19880;DHT22;10102;50.828;4.416;2023-09-19T15:46:44;21.20;99.90
19880;DHT22;10102;50.828;4.416;2023-09-19T15:49:11;20.80;99.90
19880;DHT22;10102;50.828;4.416;2023-09-19T15:51:37;21.10;99.90
19880;DHT22;10102;50.828;4.416;2023-09-19T15:54:09;20.80;99.90
19880;DHT22;10102;50.828;4.416;2023-09-19T15:56:35;20.90;99.90
19880;DHT22;10102;50.828;4.416;2023-09-19T15:59:01;20.70;99.90
19880;DHT22;10102;50.828;4.416;2023-09-19T16:01:27;20.80;99.90
19880;DHT22;10102;50.828;4.416;2023-09-19T16:03:54;21.00;99.90
19880;DHT22;10102;50.828;4.416;2023-09-19T16:06:23;20.80;99.90
19880;DHT22;10102;50.828;4.416;2023-09-19T16:08:50;20.80;99.90
19880;DHT22;10102;50.828;4.416;2023-09-19T16:11:18;20.90;99.90
19880;DHT22;10102;50.828;4.416;2023-09-19T16:13:48;20.70;99.90
19880;DHT22;10102;50.828;4.416;2023-09-19T16:16:16;20.90;99.90
19880;DHT22;10102;50.828;4.416;2023-09-19T16:18:49;20.70;99.90
19880;DHT22;10102;50.828;4.416;2023-09-19T16:21:16;20.70;99.90
19880;DHT22;10102;50.828;4.416;2023-09-19T16:23:46;20.80;99.90
19880;DHT22;10102;50.828;4.416;2023-09-19T16:26:12;20.60;99.90
19880;DHT22;10102;50.828;4.416;2023-09-19T16:28:40;20.60;99.90
19880;DHT22;10102;50.828;4.416;2023-09-19T16:31:07;20.60;99.90
19880;DHT22;10102;50.828;4.416;2023-09-19T16:33:35;20.70;99.90
19880;DHT22;10102;50.828;4.416;2023-09-19T16:36:06;20.60;99.90
19880;DHT22;10102;50.828;4.416;2023-09-19T16:38:32;20.60;99.90
19880;DHT22;10102;50.828;4.416;2023-09-19T16:40:58;20.60;99.90
19880;DHT22;10102;50.828;4.416;2023-09-19T16:43:26;20.30;99.90
19880;DHT22;10102;50.828;4.416;2023-09-19T16:45:56;20.30;99.90
19880;DHT22;10102;50.828;4.416;2023-09-19T16:48:24;20.30;99.90
19880;DHT22;10102;50.828;4.416;2023-09-19T16:50:51;20.10;99.90
19880;DHT22;10102;50.828;4.416;2023-09-19T16:53:18;20.30;99.90
19880;DHT22;10102;50.828;4.416;2023-09-19T16:55:47;20.50;99.90
19880;DHT22;10102;50.828;4.416;2023-09-19T16:58:16;20.20;99.90
19880;DHT22;10102;50.828;4.416;2023-09-19T17:00:46;20.40;99.90